Time,TemperatureF,DewpointF,PressureIn,WindDirection,WindDirectionDegrees,WindSpeedMPH,WindSpeedGustMPH,Humidity,HourlyPrecipIn,Conditions,Clouds,dailyrainin,SoftwareType,DateUTC
2013-11-22 00:00:00,42.0,39.8,30.20,SSE,158,0.0,1.0,92,0.02,,-RA,0.00,VWS V13.01,2013-11-22 05:00:00,
2013-11-22 00:01:00,42.0,39.8,30.20,SSE,159,0.0,1.0,92,0.02,,-RA,0.00,VWS V13.01,2013-11-22 05:01:00,
2013-11-22 00:02:00,41.9,39.8,30.20,SSE,159,0.0,1.0,92,0.02,,-RA,0.00,VWS V13.01,2013-11-22 05:02:00,
2013-11-22 00:07:00,41.8,39.9,30.20,SSE,159,0.0,1.0,93,0.02,,-RA,0.00,VWS V13.01,2013-11-22 05:07:00,
2013-11-22 00:12:00,41.8,39.9,30.20,SSE,159,0.0,1.0,93,0.02,,-RA,0.00,VWS V13.01,2013-11-22 05:12:00,
2013-11-22 00:17:00,41.7,39.8,30.20,SSE,158,0.0,0.0,93,0.03,,-RA,0.01,VWS V13.01,2013-11-22 05:17:00,
2013-11-22 00:22:00,41.6,39.7,30.20,SSE,158,0.0,1.0,93,0.03,,-RA,0.01,VWS V13.01,2013-11-22 05:22:00,
2013-11-22 00:27:00,41.6,39.7,30.19,SSE,158,0.0,1.0,93,0.03,,-RA,0.01,VWS V13.01,2013-11-22 05:27:00,
2013-11-22 00:32:00,41.5,39.6,30.19,SSE,159,0.0,1.0,93,0.02,,-RA,0.01,VWS V13.01,2013-11-22 05:32:00,
2013-11-22 00:37:00,41.4,39.5,30.19,SSE,158,0.0,1.0,93,0.02,,-RA,0.01,VWS V13.01,2013-11-22 05:37:00,
2013-11-22 00:42:00,41.4,39.5,30.19,SSE,159,1.0,1.0,93,0.02,,-RA,0.01,VWS V13.01,2013-11-22 05:42:00,
2013-11-22 00:47:00,41.3,39.4,30.19,SSE,159,0.0,1.0,93,0.02,,-RA,0.01,VWS V13.01,2013-11-22 05:47:00,
2013-11-22 00:52:00,41.2,39.6,30.18,SSE,158,0.0,1.0,94,0.02,,-RA,0.01,VWS V13.01,2013-11-22 05:52:00,
2013-11-22 00:57:00,41.2,39.6,30.18,SSE,158,0.0,1.0,94,0.02,,-RA,0.01,VWS V13.01,2013-11-22 05:57:00,
2013-11-22 01:02:00,41.0,39.4,30.18,SSE,159,0.0,1.0,94,0.01,,,0.01,VWS V13.01,2013-11-22 06:02:00,
2013-11-22 01:07:00,40.9,39.3,30.18,SSE,159,0.0,1.0,94,0.01,,,0.01,VWS V13.01,2013-11-22 06:07:00,
2013-11-22 01:12:00,40.7,39.1,30.18,SSE,159,0.0,2.0,94,0.01,,,0.01,VWS V13.01,2013-11-22 06:12:00,
2013-11-22 01:17:00,40.7,39.1,30.18,SSE,158,0.0,1.0,94,0.01,,,0.01,VWS V13.01,2013-11-22 06:17:00,
2013-11-22 01:22:00,40.7,39.1,30.18,SSE,159,0.0,1.0,94,0.01,,,0.01,VWS V13.01,2013-11-22 06:22:00,
2013-11-22 01:27:00,40.6,39.0,30.18,SSE,159,0.0,1.0,94,0.01,,,0.01,VWS V13.01,2013-11-22 06:27:00,
2013-11-22 01:32:00,40.6,39.0,30.18,SSE,158,0.0,1.0,94,0.00,,,0.01,VWS V13.01,2013-11-22 06:32:00,
2013-11-22 01:37:00,40.5,38.9,30.18,SSE,158,1.0,1.0,94,0.00,,,0.01,VWS V13.01,2013-11-22 06:37:00,
2013-11-22 01:42:00,40.6,39.3,30.17,SSE,159,0.0,1.0,95,0.00,,,0.01,VWS V13.01,2013-11-22 06:42:00,
2013-11-22 01:47:00,40.6,39.3,30.18,SSE,159,0.0,1.0,95,0.00,,,0.01,VWS V13.01,2013-11-22 06:47:00,
2013-11-22 01:52:00,40.6,39.3,30.18,SSE,159,0.0,0.0,95,0.00,,,0.01,VWS V13.01,2013-11-22 06:52:00,
2013-11-22 01:57:00,40.6,39.3,30.18,SSE,159,0.0,1.0,95,0.00,,,0.01,VWS V13.01,2013-11-22 06:57:00,
2013-11-22 02:02:00,40.6,39.3,30.18,SSE,158,0.0,0.0,95,0.00,,-RA,0.01,VWS V13.01,2013-11-22 07:02:00,
2013-11-22 02:07:00,40.7,39.4,30.18,SSE,159,0.0,0.0,95,0.00,,-RA,0.01,VWS V13.01,2013-11-22 07:07:00,
2013-11-22 02:12:00,40.7,39.4,30.18,SSE,158,0.0,1.0,95,0.00,,-RA,0.01,VWS V13.01,2013-11-22 07:12:00,
2013-11-22 02:17:00,40.8,39.5,30.18,SSE,159,0.0,1.0,95,0.00,,-RA,0.01,VWS V13.01,2013-11-22 07:17:00,
2013-11-22 02:22:00,40.8,39.5,30.18,SSE,159,0.0,1.0,95,0.00,,-RA,0.01,VWS V13.01,2013-11-22 07:22:00,
2013-11-22 02:27:00,40.8,39.5,30.17,SSE,159,0.0,1.0,95,0.00,,-RA,0.01,VWS V13.01,2013-11-22 07:27:00,
2013-11-22 02:32:00,40.9,39.6,30.17,SSE,158,0.0,0.0,95,0.00,,-RA,0.01,VWS V13.01,2013-11-22 07:32:00,
2013-11-22 02:37:00,41.0,39.7,30.17,SSE,158,0.0,0.0,95,0.00,,-RA,0.01,VWS V13.01,2013-11-22 07:37:00,
2013-11-22 02:42:00,41.0,39.7,30.17,SSE,159,0.0,1.0,95,0.00,,-RA,0.01,VWS V13.01,2013-11-22 07:42:00,
2013-11-22 02:47:00,41.1,39.8,30.17,SSE,158,0.0,1.0,95,0.00,,-RA,0.01,VWS V13.01,2013-11-22 07:47:00,
2013-11-22 02:52:00,41.0,39.7,30.17,SSE,159,0.0,1.0,95,0.00,,-RA,0.01,VWS V13.01,2013-11-22 07:52:00,
2013-11-22 02:57:00,41.0,39.7,30.17,SSE,158,0.0,0.0,95,0.00,,-RA,0.01,VWS V13.01,2013-11-22 07:57:00,
2013-11-22 03:02:00,41.0,39.7,30.17,SSE,158,0.0,0.0,95,0.00,,,0.01,VWS V13.01,2013-11-22 08:02:00,
2013-11-22 03:07:00,41.1,39.8,30.17,SSE,158,0.0,0.0,95,0.00,,,0.01,VWS V13.01,2013-11-22 08:07:00,
2013-11-22 03:12:00,41.2,39.9,30.17,SSE,158,0.0,0.0,95,0.00,,,0.01,VWS V13.01,2013-11-22 08:12:00,
2013-11-22 03:17:00,41.2,39.9,30.17,SSE,159,1.0,1.0,95,0.00,,,0.01,VWS V13.01,2013-11-22 08:17:00,
2013-11-22 03:22:00,41.1,39.8,30.17,SSE,159,0.0,1.0,95,0.00,,,0.01,VWS V13.01,2013-11-22 08:22:00,
2013-11-22 03:27:00,41.1,39.8,30.17,SSE,159,1.0,1.0,95,0.00,,,0.01,VWS V13.01,2013-11-22 08:27:00,
2013-11-22 03:32:00,41.1,39.8,30.17,SSE,159,0.0,2.0,95,0.00,,,0.01,VWS V13.01,2013-11-22 08:32:00,
2013-11-22 03:37:00,41.0,39.7,30.17,SSE,159,1.0,1.0,95,0.00,,,0.01,VWS V13.01,2013-11-22 08:37:00,
2013-11-22 03:42:00,40.9,39.6,30.17,SSE,159,1.0,1.0,95,0.00,,,0.01,VWS V13.01,2013-11-22 08:42:00,
2013-11-22 03:47:00,40.9,39.6,30.17,SSE,159,0.0,2.0,95,0.00,,,0.01,VWS V13.01,2013-11-22 08:47:00,
2013-11-22 03:52:00,40.8,39.5,30.17,SSE,158,0.0,1.0,95,0.00,,,0.01,VWS V13.01,2013-11-22 08:52:00,
2013-11-22 03:57:00,40.8,39.5,30.17,SSE,159,0.0,0.0,95,0.00,,,0.01,VWS V13.01,2013-11-22 08:57:00,
2013-11-22 04:02:00,40.8,39.5,30.17,SSE,158,2.0,2.0,95,0.00,,,0.01,VWS V13.01,2013-11-22 09:02:00,
2013-11-22 04:07:00,40.7,39.4,30.17,SSE,158,0.0,2.0,95,0.00,,,0.01,VWS V13.01,2013-11-22 09:07:00,
2013-11-22 04:12:00,40.7,39.4,30.17,SSE,159,0.0,0.0,95,0.00,,,0.01,VWS V13.01,2013-11-22 09:12:00,
2013-11-22 04:17:00,40.7,39.4,30.18,SSE,159,0.0,0.0,95,0.00,,,0.01,VWS V13.01,2013-11-22 09:17:00,
2013-11-22 04:22:00,40.7,39.4,30.17,SSE,159,0.0,1.0,95,0.00,,,0.01,VWS V13.01,2013-11-22 09:22:00,
2013-11-22 04:27:00,40.7,39.4,30.17,SSE,159,0.0,1.0,95,0.00,,,0.01,VWS V13.01,2013-11-22 09:27:00,
2013-11-22 04:32:00,40.7,39.4,30.17,SSE,159,0.0,1.0,95,0.00,,,0.01,VWS V13.01,2013-11-22 09:32:00,
2013-11-22 04:37:00,40.7,39.4,30.17,SSE,158,0.0,1.0,95,0.00,,,0.01,VWS V13.01,2013-11-22 09:37:00,
2013-11-22 04:42:00,40.7,39.4,30.17,SSE,159,1.0,1.0,95,0.00,,,0.01,VWS V13.01,2013-11-22 09:42:00,
2013-11-22 04:47:00,40.6,39.3,30.18,SSE,158,0.0,1.0,95,0.00,,,0.01,VWS V13.01,2013-11-22 09:47:00,
2013-11-22 04:52:00,40.6,39.5,30.18,SSE,158,0.0,0.0,96,0.00,,,0.01,VWS V13.01,2013-11-22 09:52:00,
2013-11-22 04:57:00,40.7,39.7,30.17,SSE,159,0.0,1.0,96,0.00,,,0.01,VWS V13.01,2013-11-22 09:57:00,
2013-11-22 05:02:00,40.7,39.7,30.17,SSE,159,1.0,1.0,96,0.00,,,0.01,VWS V13.01,2013-11-22 10:02:00,
2013-11-22 05:07:00,40.7,39.7,30.17,SSE,158,0.0,2.0,96,0.00,,,0.01,VWS V13.01,2013-11-22 10:07:00,
2013-11-22 05:12:00,40.6,39.5,30.17,SSE,159,0.0,1.0,96,0.00,,,0.01,VWS V13.01,2013-11-22 10:12:00,
2013-11-22 05:17:00,40.6,39.5,30.17,SSE,159,0.0,1.0,96,0.00,,,0.01,VWS V13.01,2013-11-22 10:17:00,
2013-11-22 05:22:00,40.7,39.7,30.17,SSE,159,0.0,1.0,96,0.00,,,0.01,VWS V13.01,2013-11-22 10:22:00,
2013-11-22 05:27:00,40.6,39.5,30.17,SSE,158,0.0,2.0,96,0.00,,,0.01,VWS V13.01,2013-11-22 10:27:00,
2013-11-22 05:32:00,40.5,39.5,30.17,SSE,159,0.0,2.0,96,0.00,,,0.01,VWS V13.01,2013-11-22 10:32:00,
2013-11-22 05:37:00,40.5,39.5,30.17,SSE,159,2.0,2.0,96,0.00,,,0.01,VWS V13.01,2013-11-22 10:37:00,
2013-11-22 05:42:00,40.4,39.3,30.17,SSE,158,0.0,2.0,96,0.00,,,0.01,VWS V13.01,2013-11-22 10:42:00,
2013-11-22 05:48:00,40.4,39.3,30.17,SSE,159,1.0,1.0,96,0.00,,,0.01,VWS V13.01,2013-11-22 10:48:00,
2013-11-22 05:53:00,40.4,39.3,30.16,SSE,159,0.0,1.0,96,0.00,,,0.01,VWS V13.01,2013-11-22 10:53:00,
2013-11-22 05:58:00,40.5,39.5,30.16,SSE,159,0.0,1.0,96,0.00,,,0.01,VWS V13.01,2013-11-22 10:58:00,
2013-11-22 06:03:00,40.4,39.3,30.16,SSE,159,0.0,2.0,96,0.00,,-RA,0.01,VWS V13.01,2013-11-22 11:03:00,
2013-11-22 06:08:00,40.4,39.3,30.17,SSE,159,1.0,2.0,96,0.00,,-RA,0.01,VWS V13.01,2013-11-22 11:08:00,
2013-11-22 06:13:00,40.4,39.3,30.17,SSE,159,0.0,2.0,96,0.00,,-RA,0.01,VWS V13.01,2013-11-22 11:13:00,
2013-11-22 06:18:00,40.3,39.2,30.17,SSE,159,2.0,3.0,96,0.00,,-RA,0.01,VWS V13.01,2013-11-22 11:18:00,
2013-11-22 06:23:00,40.2,39.2,30.17,SSE,158,2.0,3.0,96,0.00,,-RA,0.01,VWS V13.01,2013-11-22 11:23:00,
2013-11-22 06:28:00,40.1,39.0,30.17,SSE,159,2.0,3.0,96,0.00,,-RA,0.01,VWS V13.01,2013-11-22 11:28:00,
2013-11-22 06:33:00,40.1,39.0,30.17,SSE,158,2.0,2.0,96,0.00,,-RA,0.01,VWS V13.01,2013-11-22 11:33:00,
2013-11-22 06:38:00,40.1,39.0,30.17,SSE,159,0.0,3.0,96,0.00,,-RA,0.01,VWS V13.01,2013-11-22 11:38:00,
2013-11-22 06:43:00,40.1,39.0,30.17,SSE,159,1.0,3.0,96,0.00,,-RA,0.01,VWS V13.01,2013-11-22 11:43:00,
2013-11-22 06:48:00,40.1,39.0,30.17,SSE,158,0.0,3.0,96,0.00,,-RA,0.01,VWS V13.01,2013-11-22 11:48:00,
2013-11-22 06:53:00,40.1,39.0,30.16,SSE,159,1.0,2.0,96,0.00,,-RA,0.01,VWS V13.01,2013-11-22 11:53:00,
2013-11-22 06:58:00,40.1,39.0,30.16,NW,321,1.0,4.0,96,0.00,,-RA,0.01,VWS V13.01,2013-11-22 11:58:00,
2013-11-22 07:03:00,40.1,39.0,30.17,NNW,333,2.0,4.0,96,0.00,,-RA,0.01,VWS V13.01,2013-11-22 12:03:00,
2013-11-22 07:08:00,40.0,39.0,30.17,NNW,332,1.0,4.0,96,0.00,,-RA,0.01,VWS V13.01,2013-11-22 12:08:00,
2013-11-22 07:13:00,40.0,39.0,30.17,NNW,332,1.0,3.0,96,0.00,,-RA,0.01,VWS V13.01,2013-11-22 12:13:00,
2013-11-22 07:18:00,39.9,38.8,30.17,North,355,0.0,4.0,96,0.00,,-RA,0.01,VWS V13.01,2013-11-22 12:18:00,
2013-11-22 07:23:00,39.9,38.8,30.17,North,360,1.0,4.0,96,0.00,,-RA,0.01,VWS V13.01,2013-11-22 12:23:00,
2013-11-22 07:28:00,39.9,38.8,30.17,North,360,2.0,3.0,96,0.00,,-RA,0.01,VWS V13.01,2013-11-22 12:28:00,
2013-11-22 07:33:00,39.9,38.8,30.17,NNW,338,4.0,4.0,96,0.00,,-RA,0.01,VWS V13.01,2013-11-22 12:33:00,
2013-11-22 07:38:00,39.8,38.8,30.17,NNW,338,4.0,5.0,96,0.00,,-RA,0.01,VWS V13.01,2013-11-22 12:38:00,
2013-11-22 07:43:00,39.7,38.7,30.18,NNW,338,4.0,4.0,96,0.00,,-RA,0.01,VWS V13.01,2013-11-22 12:43:00,
2013-11-22 07:48:00,39.6,38.6,30.18,NNW,332,6.0,7.0,96,0.00,,-RA,0.01,VWS V13.01,2013-11-22 12:48:00,
2013-11-22 07:53:00,39.5,38.5,30.19,NNW,333,5.0,7.0,96,0.00,,-RA,0.01,VWS V13.01,2013-11-22 12:53:00,
2013-11-22 07:58:00,39.4,38.4,30.18,NW,326,3.0,6.0,96,0.05,,-RA,0.06,VWS V13.01,2013-11-22 12:58:00,
2013-11-22 08:03:00,39.3,38.3,30.18,NNW,342,4.0,4.0,96,0.05,,OVC026,0.06,VWS V13.01,2013-11-22 13:03:00,
2013-11-22 08:08:00,39.3,38.3,30.18,NNW,339,2.0,5.0,96,0.05,,OVC026,0.06,VWS V13.01,2013-11-22 13:08:00,
2013-11-22 08:13:00,39.1,37.8,30.18,NNW,327,3.0,6.0,95,0.05,,OVC026,0.06,VWS V13.01,2013-11-22 13:13:00,
2013-11-22 08:18:00,39.1,37.8,30.18,NNW,338,2.0,5.0,95,0.05,,OVC026,0.06,VWS V13.01,2013-11-22 13:18:00,
2013-11-22 08:23:00,39.0,37.7,30.18,NNW,328,2.0,6.0,95,0.05,,OVC026,0.06,VWS V13.01,2013-11-22 13:23:00,
2013-11-22 08:28:00,38.9,37.6,30.18,NNW,328,2.0,7.0,95,0.05,,OVC026,0.06,VWS V13.01,2013-11-22 13:28:00,
2013-11-22 08:33:00,38.8,37.5,30.19,NNW,337,2.0,5.0,95,0.05,,OVC026,0.06,VWS V13.01,2013-11-22 13:33:00,
2013-11-22 08:38:00,38.8,37.5,30.19,NW,325,6.0,7.0,95,0.05,,OVC026,0.06,VWS V13.01,2013-11-22 13:38:00,
2013-11-22 08:43:00,38.7,37.4,30.20,NNW,329,6.0,9.0,95,0.05,,OVC026,0.06,VWS V13.01,2013-11-22 13:43:00,
2013-11-22 08:48:00,38.4,36.8,30.20,NW,321,5.0,11.0,94,0.05,,OVC026,0.06,VWS V13.01,2013-11-22 13:48:00,
2013-11-22 08:53:00,38.1,36.5,30.20,NNW,327,11.0,11.0,94,0.05,,OVC026,0.06,VWS V13.01,2013-11-22 13:53:00,
2013-11-22 08:58:00,37.8,36.2,30.20,WNW,302,5.0,11.0,94,0.05,,OVC026,0.06,VWS V13.01,2013-11-22 13:58:00,
2013-11-22 09:03:00,37.4,35.6,30.20,NNW,336,8.0,9.0,93,0.00,,OVC013,0.06,VWS V13.01,2013-11-22 14:03:00,
2013-11-22 09:08:00,37.1,35.3,30.20,NW,306,5.0,15.0,93,0.00,,OVC013,0.06,VWS V13.01,2013-11-22 14:08:00,
2013-11-22 09:13:00,36.9,35.1,30.20,NNW,334,7.0,11.0,93,0.00,,OVC013,0.06,VWS V13.01,2013-11-22 14:13:00,
2013-11-22 09:18:00,36.8,35.0,30.19,NW,325,4.0,9.0,93,0.00,,OVC013,0.06,VWS V13.01,2013-11-22 14:18:00,
2013-11-22 09:23:00,36.6,34.5,30.20,NW,314,6.0,9.0,92,0.00,,OVC013,0.06,VWS V13.01,2013-11-22 14:23:00,
2013-11-22 09:28:00,36.5,34.4,30.20,WNW,284,5.0,11.0,92,0.00,,OVC013,0.06,VWS V13.01,2013-11-22 14:28:00,
2013-11-22 09:33:00,36.5,34.4,30.20,NNW,339,5.0,11.0,92,0.00,,OVC013,0.06,VWS V13.01,2013-11-22 14:33:00,
2013-11-22 09:38:00,36.4,34.3,30.20,NW,321,7.0,7.0,92,0.00,,OVC013,0.06,VWS V13.01,2013-11-22 14:38:00,
2013-11-22 09:43:00,36.4,34.3,30.20,NNW,334,4.0,9.0,92,0.00,,OVC013,0.06,VWS V13.01,2013-11-22 14:43:00,
2013-11-22 09:49:00,36.3,34.2,30.20,NNW,329,2.0,9.0,92,0.00,,OVC013,0.06,VWS V13.01,2013-11-22 14:49:00,
2013-11-22 09:54:00,36.2,34.1,30.20,NW,320,5.0,6.0,92,0.00,,OVC013,0.06,VWS V13.01,2013-11-22 14:54:00,
2013-11-22 09:59:00,36.1,34.0,30.21,NNW,333,5.0,12.0,92,0.00,,OVC013,0.06,VWS V13.01,2013-11-22 14:59:00,
2013-11-22 10:04:00,36.1,34.0,30.21,NNW,327,5.0,8.0,92,0.00,,,0.06,VWS V13.01,2013-11-22 15:04:00,
2013-11-22 10:09:00,36.0,33.9,30.21,NW,312,7.0,8.0,92,0.00,,,0.06,VWS V13.01,2013-11-22 15:09:00,
2013-11-22 10:14:00,35.8,33.7,30.22,NW,315,2.0,9.0,92,0.00,,,0.06,VWS V13.01,2013-11-22 15:14:00,
2013-11-22 10:19:00,35.6,33.5,30.22,NW,322,6.0,10.0,92,0.00,,,0.06,VWS V13.01,2013-11-22 15:19:00,
2013-11-22 10:24:00,35.4,33.3,30.22,NW,315,6.0,8.0,92,0.00,,,0.06,VWS V13.01,2013-11-22 15:24:00,
2013-11-22 10:29:00,35.2,33.1,30.22,NW,316,5.0,9.0,92,0.00,,,0.06,VWS V13.01,2013-11-22 15:29:00,
2013-11-22 10:34:00,35.1,33.0,30.23,NNW,327,5.0,7.0,92,0.00,,,0.06,VWS V13.01,2013-11-22 15:34:00,
2013-11-22 10:39:00,35.0,32.9,30.23,WNW,287,6.0,9.0,92,0.00,,,0.06,VWS V13.01,2013-11-22 15:39:00,
2013-11-22 10:44:00,34.8,33.0,30.23,NW,320,5.0,12.0,93,0.00,,,0.06,VWS V13.01,2013-11-22 15:44:00,
2013-11-22 10:49:00,34.7,32.9,30.23,WNW,294,4.0,8.0,93,0.00,,,0.06,VWS V13.01,2013-11-22 15:49:00,
2013-11-22 10:54:00,34.7,32.9,30.23,NW,323,8.0,9.0,93,0.00,,,0.06,VWS V13.01,2013-11-22 15:54:00,
2013-11-22 10:59:00,34.5,32.7,30.23,NW,311,9.0,13.0,93,0.00,,,0.06,VWS V13.01,2013-11-22 15:59:00,
2013-11-22 11:04:00,34.3,32.5,30.23,NW,309,6.0,12.0,93,0.00,,,0.06,VWS V13.01,2013-11-22 16:04:00,
2013-11-22 11:09:00,34.2,32.4,30.23,NNW,330,4.0,10.0,93,0.00,,,0.06,VWS V13.01,2013-11-22 16:09:00,
2013-11-22 11:14:00,34.2,32.4,30.23,WNW,291,5.0,9.0,93,0.00,,,0.06,VWS V13.01,2013-11-22 16:14:00,
2013-11-22 11:19:00,34.1,32.3,30.23,NW,325,5.0,9.0,93,0.00,,,0.06,VWS V13.01,2013-11-22 16:19:00,
2013-11-22 11:24:00,34.1,32.3,30.23,WNW,295,4.0,9.0,93,0.00,,,0.06,VWS V13.01,2013-11-22 16:24:00,
2013-11-22 11:29:00,34.0,32.2,30.23,NW,315,0.0,11.0,93,0.00,,,0.06,VWS V13.01,2013-11-22 16:29:00,
2013-11-22 11:34:00,34.1,32.3,30.23,NW,323,6.0,10.0,93,0.00,,,0.06,VWS V13.01,2013-11-22 16:34:00,
2013-11-22 11:39:00,34.0,32.2,30.23,NW,316,5.0,10.0,93,0.00,,,0.06,VWS V13.01,2013-11-22 16:39:00,
2013-11-22 11:44:00,33.8,32.0,30.23,NNW,334,4.0,9.0,93,0.00,,,0.06,VWS V13.01,2013-11-22 16:44:00,
2013-11-22 11:49:00,33.7,31.9,30.23,NW,316,7.0,11.0,93,0.00,,,0.06,VWS V13.01,2013-11-22 16:49:00,
2013-11-22 11:54:00,33.6,31.8,30.23,NW,321,7.0,11.0,93,0.00,,,0.06,VWS V13.01,2013-11-22 16:54:00,
2013-11-22 11:59:00,33.5,31.4,30.24,NW,324,4.0,12.0,92,0.00,,,0.06,VWS V13.01,2013-11-22 16:59:00,
2013-11-22 12:04:00,33.6,31.3,30.24,NNW,331,6.0,11.0,91,0.00,,,0.06,VWS V13.01,2013-11-22 17:04:00,
2013-11-22 12:09:00,33.6,31.3,30.23,NNW,330,7.0,13.0,91,0.00,,,0.06,VWS V13.01,2013-11-22 17:09:00,
2013-11-22 12:14:00,33.7,31.4,30.24,NNW,348,4.0,14.0,91,0.00,,,0.06,VWS V13.01,2013-11-22 17:14:00,
2013-11-22 12:19:00,33.7,31.4,30.24,NW,321,4.0,10.0,91,0.00,,,0.06,VWS V13.01,2013-11-22 17:19:00,
2013-11-22 12:24:00,33.7,31.1,30.24,WNW,301,5.0,12.0,90,0.00,,,0.06,VWS V13.01,2013-11-22 17:24:00,
2013-11-22 12:29:00,33.7,31.4,30.24,WNW,283,12.0,12.0,91,0.00,,,0.06,VWS V13.01,2013-11-22 17:29:00,
2013-11-22 12:34:00,33.8,31.5,30.24,WNW,300,3.0,9.0,91,0.00,,,0.06,VWS V13.01,2013-11-22 17:34:00,
2013-11-22 12:39:00,33.8,31.5,30.24,NNW,331,8.0,9.0,91,0.00,,,0.06,VWS V13.01,2013-11-22 17:39:00,
2013-11-22 12:44:00,33.8,31.5,30.25,NW,305,8.0,12.0,91,0.00,,,0.06,VWS V13.01,2013-11-22 17:44:00,
2013-11-22 12:49:00,33.8,31.5,30.25,NW,314,8.0,9.0,91,0.00,,,0.06,VWS V13.01,2013-11-22 17:49:00,
2013-11-22 12:54:00,33.8,30.9,30.25,NNW,333,6.0,12.0,89,0.00,,,0.06,VWS V13.01,2013-11-22 17:54:00,
2013-11-22 12:59:00,33.8,30.6,30.25,NW,309,8.0,11.0,88,0.00,,,0.06,VWS V13.01,2013-11-22 17:59:00,
2013-11-22 13:04:00,33.8,30.6,30.26,WNW,298,7.0,11.0,88,0.00,,,0.06,VWS V13.01,2013-11-22 18:04:00,
2013-11-22 13:09:00,33.9,30.7,30.26,NW,314,7.0,14.0,88,0.00,,,0.06,VWS V13.01,2013-11-22 18:09:00,
2013-11-22 13:14:00,33.9,30.5,30.26,NW,309,5.0,11.0,87,0.00,,,0.06,VWS V13.01,2013-11-22 18:14:00,
2013-11-22 13:20:00,34.0,30.3,30.26,NW,324,8.0,14.0,86,0.00,,,0.06,VWS V13.01,2013-11-22 18:20:00,
2013-11-22 13:25:00,33.9,30.2,30.26,WNW,288,16.0,17.0,86,0.00,,,0.06,VWS V13.01,2013-11-22 18:25:00,
2013-11-22 13:30:00,33.9,29.9,30.27,NW,309,5.0,12.0,85,0.00,,,0.06,VWS V13.01,2013-11-22 18:30:00,
2013-11-22 13:35:00,33.9,29.9,30.27,NW,318,7.0,11.0,85,0.00,,,0.06,VWS V13.01,2013-11-22 18:35:00,
2013-11-22 13:40:00,33.9,30.2,30.27,NW,313,5.0,8.0,86,0.00,,,0.06,VWS V13.01,2013-11-22 18:40:00,
2013-11-22 13:45:00,33.9,29.9,30.27,NNW,334,7.0,10.0,85,0.00,,,0.06,VWS V13.01,2013-11-22 18:45:00,
2013-11-22 13:50:00,33.9,29.9,30.26,NW,321,7.0,12.0,85,0.00,,,0.06,VWS V13.01,2013-11-22 18:50:00,
2013-11-22 13:55:00,34.0,30.0,30.26,NW,320,6.0,8.0,85,0.00,,,0.06,VWS V13.01,2013-11-22 18:55:00,
2013-11-22 14:00:00,34.1,30.1,30.26,NW,310,7.0,12.0,85,0.00,,,0.06,VWS V13.01,2013-11-22 19:00:00,
2013-11-22 14:05:00,34.2,30.2,30.26,NW,313,9.0,10.0,85,0.00,,OVC027,0.06,VWS V13.01,2013-11-22 19:05:00,
2013-11-22 14:10:00,34.4,30.4,30.26,WNW,283,5.0,11.0,85,0.00,,OVC027,0.06,VWS V13.01,2013-11-22 19:10:00,
2013-11-22 14:15:00,34.5,30.2,30.27,NW,310,9.0,13.0,84,0.00,,OVC027,0.06,VWS V13.01,2013-11-22 19:15:00,
2013-11-22 14:20:00,34.6,30.0,30.27,WNW,282,8.0,13.0,83,0.00,,OVC027,0.06,VWS V13.01,2013-11-22 19:20:00,
2013-11-22 14:30:00,34.8,29.9,30.27,NW,315,7.0,13.0,82,0.00,,OVC027,0.06,VWS V13.01,2013-11-22 19:30:00,
2013-11-22 14:42:00,34.8,29.9,30.27,NW,315,7.0,13.0,82,0.00,,OVC027,0.06,VWS V13.01,2013-11-22 19:42:00,
2013-11-22 14:47:00,35.8,30.5,30.27,NW,317,5.0,12.0,81,0.00,,OVC027,0.06,VWS V13.01,2013-11-22 19:47:00,
2013-11-22 14:52:00,36.3,31.0,30.27,NNW,331,7.0,10.0,81,0.00,,OVC027,0.06,VWS V13.01,2013-11-22 19:52:00,
2013-11-22 14:57:00,37.2,31.9,30.27,North,355,5.0,8.0,81,0.00,,OVC027,0.06,VWS V13.01,2013-11-22 19:57:00,
2013-11-22 15:02:00,37.4,30.9,30.27,NW,323,10.0,11.0,77,0.00,,OVC023,0.06,VWS V13.01,2013-11-22 20:02:00,
2013-11-22 15:07:00,37.0,30.1,30.27,NW,322,7.0,14.0,76,0.00,,OVC023,0.06,VWS V13.01,2013-11-22 20:07:00,
2013-11-22 15:12:00,37.1,30.2,30.27,NW,317,8.0,11.0,76,0.00,,OVC023,0.06,VWS V13.01,2013-11-22 20:12:00,
2013-11-22 15:17:00,37.2,30.4,30.27,NNW,328,4.0,15.0,76,0.00,,OVC023,0.06,VWS V13.01,2013-11-22 20:17:00,
2013-11-22 15:22:00,37.5,30.6,30.27,NNW,336,5.0,7.0,76,0.00,,OVC023,0.06,VWS V13.01,2013-11-22 20:22:00,
2013-11-22 15:32:00,37.1,29.6,30.28,NW,315,6.0,15.0,74,0.00,,OVC023,0.06,VWS V13.01,2013-11-22 20:32:00,
2013-11-22 15:37:00,36.2,28.4,30.29,NNW,331,8.0,13.0,73,0.00,,OVC023,0.06,VWS V13.01,2013-11-22 20:37:00,
2013-11-22 15:42:00,35.9,28.4,30.29,NW,321,7.0,13.0,74,0.00,,OVC023,0.06,VWS V13.01,2013-11-22 20:42:00,
2013-11-22 15:57:00,35.9,28.4,30.30,NW,325,7.0,7.0,74,0.00,,OVC023,0.06,VWS V13.01,2013-11-22 20:57:00,
2013-11-22 16:02:00,35.9,28.1,30.31,NNW,336,6.0,14.0,73,0.00,,OVC020,0.06,VWS V13.01,2013-11-22 21:02:00,
2013-11-22 16:07:00,36.1,28.3,30.31,NW,323,4.0,11.0,73,0.00,,OVC020,0.06,VWS V13.01,2013-11-22 21:07:00,
2013-11-22 16:12:00,36.4,28.9,30.31,NNW,330,2.0,8.0,74,0.00,,OVC020,0.06,VWS V13.01,2013-11-22 21:12:00,
2013-11-22 16:17:00,36.4,28.2,30.31,NW,306,4.0,9.0,72,0.00,,OVC020,0.06,VWS V13.01,2013-11-22 21:17:00,
2013-11-22 16:22:00,36.0,28.2,30.31,NW,321,4.0,8.0,73,0.00,,OVC020,0.06,VWS V13.01,2013-11-22 21:22:00,
2013-11-22 16:27:00,35.7,28.2,30.32,WNW,291,4.0,8.0,74,0.00,,OVC020,0.06,VWS V13.01,2013-11-22 21:27:00,
2013-11-22 16:32:00,35.3,27.9,30.32,NW,306,6.0,10.0,74,0.00,,OVC020,0.06,VWS V13.01,2013-11-22 21:32:00,
2013-11-22 16:37:00,35.0,27.2,30.32,NW,311,4.0,11.0,73,0.00,,OVC020,0.06,VWS V13.01,2013-11-22 21:37:00,
2013-11-22 16:42:00,34.6,27.2,30.32,NW,318,4.0,10.0,74,0.00,,OVC020,0.06,VWS V13.01,2013-11-22 21:42:00,
2013-11-22 16:47:00,34.4,27.3,30.33,NNW,329,3.0,5.0,75,0.00,,OVC020,0.06,VWS V13.01,2013-11-22 21:47:00,
2013-11-22 16:52:00,34.0,26.9,30.33,WNW,302,1.0,8.0,75,0.00,,OVC020,0.06,VWS V13.01,2013-11-22 21:52:00,
2013-11-22 16:57:00,33.5,26.4,30.33,NW,321,6.0,9.0,75,0.00,,OVC020,0.06,VWS V13.01,2013-11-22 21:57:00,
2013-11-22 17:02:00,33.2,26.5,30.33,NW,324,2.0,9.0,76,0.00,,OVC020,0.06,VWS V13.01,2013-11-22 22:02:00,
2013-11-22 17:07:00,32.8,26.4,30.33,NW,317,2.0,5.0,77,0.00,,OVC020,0.06,VWS V13.01,2013-11-22 22:07:00,
2013-11-22 17:12:00,32.6,26.5,30.33,NW,304,3.0,6.0,78,0.00,,OVC020,0.06,VWS V13.01,2013-11-22 22:12:00,
2013-11-22 17:17:00,32.3,26.2,30.34,NW,311,4.0,5.0,78,0.00,,OVC020,0.06,VWS V13.01,2013-11-22 22:17:00,
2013-11-22 17:22:00,32.1,26.3,30.34,NW,319,4.0,4.0,79,0.00,,OVC020,0.06,VWS V13.01,2013-11-22 22:22:00,
2013-11-22 17:27:00,31.9,26.1,30.34,NW,305,1.0,7.0,79,0.00,,OVC020,0.06,VWS V13.01,2013-11-22 22:27:00,
2013-11-22 17:32:00,31.8,26.4,30.34,NW,307,2.0,4.0,80,0.00,,OVC020,0.06,VWS V13.01,2013-11-22 22:32:00,
2013-11-22 17:37:00,31.6,26.1,30.35,NW,323,4.0,6.0,80,0.00,,OVC020,0.06,VWS V13.01,2013-11-22 22:37:00,
2013-11-22 17:42:00,31.5,26.0,30.35,WNW,297,2.0,5.0,80,0.00,,OVC020,0.06,VWS V13.01,2013-11-22 22:42:00,
2013-11-22 17:48:00,31.4,26.0,30.35,WNW,297,2.0,3.0,80,0.00,,OVC020,0.06,VWS V13.01,2013-11-22 22:48:00,
2013-11-22 17:53:00,31.1,26.0,30.35,NW,309,3.0,4.0,81,0.00,,OVC020,0.06,VWS V13.01,2013-11-22 22:53:00,
2013-11-22 17:58:00,31.1,26.0,30.35,NW,310,3.0,7.0,81,0.00,,OVC020,0.06,VWS V13.01,2013-11-22 22:58:00,
2013-11-22 18:03:00,31.0,25.9,30.35,NW,306,3.0,5.0,81,0.00,,OVC026,0.06,VWS V13.01,2013-11-22 23:03:00,
2013-11-22 18:08:00,30.9,25.8,30.35,NW,318,2.0,5.0,81,0.00,,OVC026,0.06,VWS V13.01,2013-11-22 23:08:00,
2013-11-22 18:13:00,30.7,25.6,30.35,NNW,327,1.0,5.0,81,0.00,,OVC026,0.06,VWS V13.01,2013-11-22 23:13:00,
2013-11-22 18:18:00,30.6,25.5,30.35,NW,322,2.0,5.0,81,0.00,,OVC026,0.06,VWS V13.01,2013-11-22 23:18:00,
2013-11-22 18:23:00,30.4,25.6,30.35,NW,322,2.0,5.0,82,0.00,,OVC026,0.06,VWS V13.01,2013-11-22 23:23:00,
2013-11-22 18:28:00,30.2,25.4,30.35,NW,324,2.0,4.0,82,0.00,,OVC026,0.06,VWS V13.01,2013-11-22 23:28:00,
2013-11-22 18:33:00,30.1,25.3,30.35,NW,321,4.0,6.0,82,0.00,,OVC026,0.06,VWS V13.01,2013-11-22 23:33:00,
2013-11-22 18:38:00,29.9,25.1,30.35,NW,319,1.0,5.0,82,0.00,,OVC026,0.06,VWS V13.01,2013-11-22 23:38:00,
2013-11-22 18:43:00,29.8,25.0,30.35,NW,319,2.0,3.0,82,0.00,,OVC026,0.06,VWS V13.01,2013-11-22 23:43:00,
2013-11-22 18:48:00,29.7,24.9,30.36,NW,319,1.0,4.0,82,0.00,,OVC026,0.06,VWS V13.01,2013-11-22 23:48:00,
2013-11-22 18:53:00,29.6,24.8,30.35,WNW,282,4.0,4.0,82,0.00,,OVC026,0.06,VWS V13.01,2013-11-22 23:53:00,
2013-11-22 18:58:00,29.6,24.5,30.36,NW,313,4.0,6.0,81,0.00,,OVC026,0.06,VWS V13.01,2013-11-22 23:58:00,
2013-11-22 19:03:00,29.5,24.4,30.36,West,281,1.0,4.0,81,0.00,,OVC025,0.06,VWS V13.01,2013-11-23 00:03:00,
2013-11-22 19:08:00,29.4,24.3,30.36,West,281,1.0,3.0,81,0.00,,OVC025,0.06,VWS V13.01,2013-11-23 00:08:00,
2013-11-22 19:13:00,29.3,24.2,30.36,WNW,284,1.0,3.0,81,0.00,,OVC025,0.06,VWS V13.01,2013-11-23 00:13:00,
2013-11-22 19:18:00,29.2,24.1,30.36,WNW,284,1.0,3.0,81,0.00,,OVC025,0.06,VWS V13.01,2013-11-23 00:18:00,
2013-11-22 19:23:00,29.1,24.0,30.36,WNW,287,0.0,7.0,81,0.00,,OVC025,0.06,VWS V13.01,2013-11-23 00:23:00,
2013-11-22 19:28:00,29.0,23.9,30.36,WNW,290,3.0,5.0,81,0.00,,OVC025,0.06,VWS V13.01,2013-11-23 00:28:00,
2013-11-22 19:33:00,28.9,23.8,30.36,WNW,293,2.0,5.0,81,0.00,,OVC025,0.06,VWS V13.01,2013-11-23 00:33:00,
2013-11-22 19:38:00,28.9,23.8,30.36,WNW,289,2.0,5.0,81,0.00,,OVC025,0.06,VWS V13.01,2013-11-23 00:38:00,
2013-11-22 19:43:00,28.8,23.7,30.36,WNW,290,2.0,5.0,81,0.00,,OVC025,0.06,VWS V13.01,2013-11-23 00:43:00,
2013-11-22 19:48:00,28.7,23.6,30.36,WNW,288,2.0,4.0,81,0.00,,OVC025,0.06,VWS V13.01,2013-11-23 00:48:00,
2013-11-22 19:53:00,28.7,23.6,30.36,WNW,288,0.0,2.0,81,0.00,,OVC025,0.06,VWS V13.01,2013-11-23 00:53:00,
2013-11-22 19:58:00,28.6,23.5,30.36,WNW,288,0.0,0.0,81,0.00,,OVC025,0.06,VWS V13.01,2013-11-23 00:58:00,
2013-11-22 20:03:00,28.5,23.4,30.36,WNW,288,0.0,1.0,81,0.00,,FEW023,0.06,VWS V13.01,2013-11-23 01:03:00,
2013-11-22 20:08:00,28.4,23.3,30.36,WNW,288,0.0,1.0,81,0.00,,FEW023,0.06,VWS V13.01,2013-11-23 01:08:00,
2013-11-22 20:13:00,28.4,23.3,30.36,WNW,288,0.0,2.0,81,0.00,,FEW023,0.06,VWS V13.01,2013-11-23 01:13:00,
2013-11-22 20:18:00,28.4,23.3,30.36,WNW,288,1.0,2.0,81,0.00,,FEW023,0.06,VWS V13.01,2013-11-23 01:18:00,
2013-11-22 20:23:00,28.3,23.5,30.36,WNW,288,0.0,1.0,82,0.00,,FEW023,0.06,VWS V13.01,2013-11-23 01:23:00,
2013-11-22 20:28:00,28.1,23.3,30.37,WNW,288,0.0,2.0,82,0.00,,FEW023,0.06,VWS V13.01,2013-11-23 01:28:00,
2013-11-22 20:33:00,28.0,23.2,30.37,WNW,288,0.0,2.0,82,0.00,,FEW023,0.06,VWS V13.01,2013-11-23 01:33:00,
2013-11-22 20:38:00,27.9,23.1,30.37,WNW,288,1.0,2.0,82,0.00,,FEW023,0.06,VWS V13.01,2013-11-23 01:38:00,
2013-11-22 20:43:00,27.9,23.1,30.37,WNW,288,0.0,2.0,82,0.00,,FEW023,0.06,VWS V13.01,2013-11-23 01:43:00,
2013-11-22 20:48:00,27.8,23.0,30.37,WNW,288,0.0,2.0,82,0.00,,FEW023,0.06,VWS V13.01,2013-11-23 01:48:00,
2013-11-22 20:53:00,27.6,23.1,30.37,WNW,288,0.0,1.0,83,0.00,,FEW023,0.06,VWS V13.01,2013-11-23 01:53:00,
2013-11-22 20:58:00,27.5,23.0,30.37,WNW,288,0.0,0.0,83,0.00,,FEW023,0.06,VWS V13.01,2013-11-23 01:58:00,
2013-11-22 21:03:00,27.3,23.1,30.37,WNW,288,0.0,0.0,84,0.00,,BKN024,0.06,VWS V13.01,2013-11-23 02:03:00,
2013-11-22 21:08:00,27.0,22.8,30.36,WNW,288,0.0,0.0,84,0.00,,BKN024,0.06,VWS V13.01,2013-11-23 02:08:00,
2013-11-22 21:13:00,26.7,22.8,30.36,WNW,288,0.0,0.0,85,0.00,,BKN024,0.06,VWS V13.01,2013-11-23 02:13:00,
2013-11-22 21:18:00,26.5,22.6,30.36,WNW,288,0.0,1.0,85,0.00,,BKN024,0.06,VWS V13.01,2013-11-23 02:18:00,
2013-11-22 21:23:00,26.4,22.8,30.36,WNW,288,0.0,1.0,86,0.00,,BKN024,0.06,VWS V13.01,2013-11-23 02:23:00,
2013-11-22 21:28:00,26.6,22.7,30.36,WNW,288,1.0,1.0,85,0.00,,BKN024,0.06,VWS V13.01,2013-11-23 02:28:00,
2013-11-22 21:33:00,26.6,22.7,30.36,WNW,288,0.0,1.0,85,0.00,,BKN024,0.06,VWS V13.01,2013-11-23 02:33:00,
2013-11-22 21:38:00,26.5,22.6,30.36,WNW,288,2.0,2.0,85,0.00,,BKN024,0.06,VWS V13.01,2013-11-23 02:38:00,
2013-11-22 21:43:00,26.6,22.7,30.36,WNW,288,1.0,2.0,85,0.00,,BKN024,0.06,VWS V13.01,2013-11-23 02:43:00,
2013-11-22 21:48:00,26.6,22.7,30.36,WNW,288,1.0,2.0,85,0.00,,BKN024,0.06,VWS V13.01,2013-11-23 02:48:00,
2013-11-22 21:53:00,26.4,22.5,30.35,WNW,288,1.0,2.0,85,0.00,,BKN024,0.06,VWS V13.01,2013-11-23 02:53:00,
2013-11-22 21:58:00,26.5,22.6,30.35,WNW,288,2.0,2.0,85,0.00,,BKN024,0.06,VWS V13.01,2013-11-23 02:58:00,
2013-11-22 22:03:00,26.5,22.3,30.35,WNW,288,2.0,3.0,84,0.00,,OVC026,0.06,VWS V13.01,2013-11-23 03:03:00,
2013-11-22 22:08:00,26.4,22.5,30.35,WNW,288,1.0,3.0,85,0.00,,OVC026,0.06,VWS V13.01,2013-11-23 03:08:00,
2013-11-22 22:13:00,26.4,22.5,30.35,WNW,286,3.0,3.0,85,0.00,,OVC026,0.06,VWS V13.01,2013-11-23 03:13:00,
2013-11-22 22:18:00,26.4,22.5,30.35,West,277,2.0,3.0,85,0.00,,OVC026,0.06,VWS V13.01,2013-11-23 03:18:00,
2013-11-22 22:23:00,26.3,22.4,30.34,West,275,2.0,4.0,85,0.00,,OVC026,0.06,VWS V13.01,2013-11-23 03:23:00,
2013-11-22 22:28:00,26.3,22.4,30.35,West,278,2.0,4.0,85,0.00,,OVC026,0.06,VWS V13.01,2013-11-23 03:28:00,
2013-11-22 22:33:00,26.3,22.4,30.35,WNW,290,2.0,4.0,85,0.00,,OVC026,0.06,VWS V13.01,2013-11-23 03:33:00,
2013-11-22 22:38:00,26.3,22.4,30.35,WNW,290,2.0,3.0,85,0.00,,OVC026,0.06,VWS V13.01,2013-11-23 03:38:00,
2013-11-22 22:43:00,26.2,22.3,30.34,West,266,2.0,4.0,85,0.00,,OVC026,0.06,VWS V13.01,2013-11-23 03:43:00,
2013-11-22 22:48:00,26.2,22.3,30.34,West,271,3.0,4.0,85,0.00,,OVC026,0.06,VWS V13.01,2013-11-23 03:48:00,
2013-11-22 22:53:00,26.2,22.3,30.34,West,259,3.0,5.0,85,0.00,,OVC026,0.06,VWS V13.01,2013-11-23 03:53:00,
2013-11-22 22:58:00,26.2,22.3,30.35,West,271,3.0,5.0,85,0.00,,OVC026,0.06,VWS V13.01,2013-11-23 03:58:00,
2013-11-22 23:03:00,26.1,22.2,30.34,West,266,2.0,4.0,85,0.00,,CLR,0.06,VWS V13.01,2013-11-23 04:03:00,
2013-11-22 23:08:00,26.1,22.2,30.34,West,266,0.0,4.0,85,0.00,,CLR,0.06,VWS V13.01,2013-11-23 04:08:00,
2013-11-22 23:13:00,26.1,22.2,30.34,West,270,2.0,4.0,85,0.00,,CLR,0.06,VWS V13.01,2013-11-23 04:13:00,
2013-11-22 23:18:00,26.0,22.1,30.34,West,271,2.0,3.0,85,0.00,,CLR,0.06,VWS V13.01,2013-11-23 04:18:00,
2013-11-22 23:23:00,26.0,22.1,30.34,West,272,2.0,3.0,85,0.00,,CLR,0.06,VWS V13.01,2013-11-23 04:23:00,
2013-11-22 23:28:00,26.1,22.2,30.34,West,271,2.0,5.0,85,0.00,,CLR,0.06,VWS V13.01,2013-11-23 04:28:00,
2013-11-22 23:33:00,26.2,22.6,30.34,West,261,1.0,4.0,86,0.00,,CLR,0.06,VWS V13.01,2013-11-23 04:33:00,
2013-11-22 23:38:00,26.6,23.3,30.34,WSW,238,3.0,6.0,87,0.00,,CLR,0.06,VWS V13.01,2013-11-23 04:38:00,
2013-11-22 23:43:00,26.8,23.2,30.34,WSW,247,4.0,6.0,86,0.00,,CLR,0.06,VWS V13.01,2013-11-23 04:43:00,
2013-11-22 23:48:00,26.9,23.6,30.34,WSW,250,2.0,6.0,87,0.00,,CLR,0.06,VWS V13.01,2013-11-23 04:48:00,
2013-11-22 23:54:00,26.7,23.4,30.33,SW,235,2.0,4.0,87,0.00,,CLR,0.06,VWS V13.01,2013-11-23 04:54:00,
2013-11-22 23:59:00,26.6,23.3,30.33,WSW,239,1.0,4.0,87,0.00,,CLR,0.06,VWS V13.01,2013-11-23 04:59:00,